Time;durP1;ratioP1;P1;durP2;ratioP2;P2;SDS_P1;SDS_P2;PMS_P1;PMS_P2;Temp;Humidity;BMP_temperature;BMP_pressure;BME280_temperature;BME280_humidity;BME280_pressure;Samples;Min_cycle;Max_cycle;Signal;HPM_P1;HPM_P2
2021/11/07 00:02:32;;;;;;;20.02;4.75;;;;;;;8.84;98.19;98949.50;5085936;28;20032;-73
2021/11/07 00:05:03;;;;;;;11.85;3.97;;;;;;;8.85;98.42;98940.84;5085895;28;20088;-75
2021/11/07 00:13:05;;;;;;;15.00;4.55;;;;;;;8.83;98.17;98926.25;5085713;28;20472;-73
2021/11/07 00:15:30;;;;;;;24.05;5.97;;;;;;;8.83;98.35;98923.66;5085722;28;20036;-74
2021/11/07 00:17:56;;;;;;;33.55;6.30;;;;;;;8.84;98.39;98931.38;5085924;28;20027;-75
2021/11/07 00:20:26;;;;;;;24.58;5.63;;;;;;;8.83;98.46;98921.94;5085968;28;20020;-75
2021/11/07 00:25:27;;;;;;;25.13;6.50;;;;;;;8.88;98.53;98914.88;5085763;28;20166;-74
2021/11/07 00:28:03;;;;;;;26.67;7.07;;;;;;;8.90;98.68;98913.13;5085792;28;20065;-74
2021/11/07 00:37:59;;;;;;;20.40;4.10;;;;;;;8.89;98.52;98861.38;5086506;28;20021;-74
2021/11/07 00:43:08;;;;;;;16.92;3.10;;;;;;;8.89;99.13;98841.53;5085179;28;20020;-74
2021/11/07 00:50:50;;;;;;;22.48;5.10;;;;;;;8.92;99.24;98822.47;5085272;28;20025;-75
2021/11/07 00:56:18;;;;;;;25.75;5.78;;;;;;;9.02;99.24;98817.91;5085152;28;20558;-75
2021/11/07 01:01:20;;;;;;;27.55;6.15;;;;;;;9.03;99.49;98804.06;5085203;28;20020;-75
2021/11/07 01:03:46;;;;;;;31.08;6.00;;;;;;;9.00;99.37;98801.56;5084628;28;20024;-74
2021/11/07 01:06:11;;;;;;;18.02;4.30;;;;;;;9.04;99.48;98792.84;5084930;28;20100;-74
2021/11/07 01:08:36;;;;;;;27.42;6.50;;;;;;;9.02;99.47;98795.47;5084759;28;20019;-74
2021/11/07 01:11:03;;;;;;;21.90;4.72;;;;;;;9.09;99.47;98797.88;5084602;28;20032;-74
2021/11/07 01:13:29;;;;;;;32.55;8.10;;;;;;;9.12;99.71;98793.44;5084247;28;20046;-73
2021/11/07 01:15:55;;;;;;;22.55;4.60;;;;;;;9.14;99.57;98796.84;5084280;28;20417;-74
2021/11/07 01:18:20;;;;;;;23.08;4.30;;;;;;;9.18;99.61;98784.69;5084496;28;20039;-74
2021/11/07 01:20:47;;;;;;;15.85;3.33;;;;;;;9.16;99.57;98771.78;5084345;28;20048;-73
2021/11/07 01:23:18;;;;;;;12.02;3.80;;;;;;;9.13;99.45;98758.91;5084583;28;20320;-74
2021/11/07 01:25:47;;;;;;;13.90;3.58;;;;;;;9.20;99.54;98750.97;5084506;28;20029;-74
2021/11/07 01:28:13;;;;;;;14.45;3.83;;;;;;;9.21;99.43;98760.41;5084414;28;20028;-73
2021/11/07 01:30:46;;;;;;;22.98;3.65;;;;;;;9.18;99.66;98746.66;5084113;28;20034;-73
2021/11/07 01:33:17;;;;;;;21.48;4.50;;;;;;;9.18;99.39;98744.06;5084066;28;20048;-73
2021/11/07 01:35:57;;;;;;;20.60;2.30;;;;;;;9.23;99.65;98737.94;5083719;28;20095;-74
2021/11/07 01:38:29;;;;;;;13.52;3.97;;;;;;;9.24;99.49;98727.53;5083381;28;20062;-74
2021/11/07 01:43:50;;;;;;;20.27;3.83;;;;;;;9.26;99.43;98725.75;5078791;28;20028;-75
2021/11/07 01:49:00;;;;;;;16.10;4.82;;;;;;;9.32;99.48;98729.03;5083109;28;20025;-74
2021/11/07 01:51:28;;;;;;;20.15;4.20;;;;;;;9.33;99.87;98721.19;5083327;28;20017;-74
2021/11/07 01:54:05;;;;;;;25.33;4.70;;;;;;;9.35;100.00;98729.78;5083774;28;20047;-75
2021/11/07 01:56:30;;;;;;;27.55;4.97;;;;;;;9.35;99.63;98711.66;5084078;28;20080;-74
2021/11/07 01:58:57;;;;;;;31.48;5.30;;;;;;;9.40;99.84;98717.53;5083700;28;20047;-73
2021/11/07 02:01:24;;;;;;;34.10;5.90;;;;;;;9.40;99.88;98702.00;5083832;28;20012;-74
2021/11/07 02:03:51;;;;;;;29.25;5.53;;;;;;;9.46;99.66;98705.28;5083305;28;20067;-74
2021/11/07 02:06:17;;;;;;;22.08;6.38;;;;;;;9.51;99.87;98706.00;5083482;28;20024;-73
2021/11/07 02:08:43;;;;;;;22.30;4.20;;;;;;;9.46;99.76;98689.75;5083574;28;20130;-73
2021/11/07 02:11:08;;;;;;;27.52;6.05;;;;;;;9.50;99.78;98693.94;5083697;28;20021;-73
2021/11/07 02:13:34;;;;;;;17.33;4.05;;;;;;;9.50;99.68;98694.81;5083627;28;20084;-73
2021/11/07 02:15:59;;;;;;;15.90;4.93;;;;;;;9.53;99.51;98686.06;5083625;28;20024;-73
2021/11/07 02:18:25;;;;;;;24.48;5.50;;;;;;;9.58;99.51;98683.34;5083494;28;20016;-74
2021/11/07 02:20:51;;;;;;;20.77;5.75;;;;;;;9.57;99.50;98679.88;5083606;28;20020;-74
2021/11/07 02:23:20;;;;;;;26.65;6.22;;;;;;;9.57;99.47;98669.53;5083658;28;20058;-73
2021/11/07 02:25:46;;;;;;;25.45;6.20;;;;;;;9.47;99.83;98666.41;5099226;28;20277;-74
2021/11/07 02:28:26;;;;;;;25.10;5.38;;;;;;;9.55;99.70;98666.97;5081989;28;20601;-74
2021/11/07 02:30:52;;;;;;;23.63;6.03;;;;;;;9.57;99.69;98674.69;5083235;28;20043;-74
2021/11/07 02:33:18;;;;;;;39.88;6.93;;;;;;;9.54;99.65;98673.06;5081704;28;20024;-73
2021/11/07 02:35:43;;;;;;;26.00;5.05;;;;;;;9.55;99.44;98666.97;5099022;28;20083;-74
2021/11/07 02:38:09;;;;;;;33.47;7.10;;;;;;;9.55;99.72;98661.81;5083685;28;20533;-74
2021/11/07 02:40:35;;;;;;;27.27;6.15;;;;;;;9.58;99.42;98666.06;5083460;28;20021;-74
2021/11/07 02:43:01;;;;;;;31.70;6.38;;;;;;;9.62;99.59;98664.19;5083316;28;20032;-74
2021/11/07 02:45:28;;;;;;;27.13;5.55;;;;;;;9.62;99.67;98656.41;5083157;28;20027;-73
2021/11/07 02:47:54;;;;;;;32.47;6.85;;;;;;;9.62;99.37;98661.59;5082861;28;20027;-72
2021/11/07 02:50:20;;;;;;;37.50;5.43;;;;;;;9.64;99.37;98654.63;5083356;28;20028;-72
2021/11/07 02:52:46;;;;;;;44.03;6.50;;;;;;;9.62;99.56;98654.69;5083439;28;20039;-72
2021/11/07 02:55:12;;;;;;;35.00;7.50;;;;;;;9.64;99.21;98652.03;5083424;28;20055;-72
2021/11/07 02:57:38;;;;;;;35.80;6.45;;;;;;;9.64;99.21;98644.28;5083006;28;20020;-72
2021/11/07 03:00:08;;;;;;;41.60;6.78;;;;;;;9.65;99.24;98649.41;5082997;28;20044;-71
2021/11/07 03:02:34;;;;;;;33.50;5.28;;;;;;;9.62;99.24;98646.91;5083491;28;20081;-72
2021/11/07 03:05:00;;;;;;;34.47;6.32;;;;;;;9.59;99.40;98638.38;5083163;28;20032;-70
2021/11/07 03:07:26;;;;;;;39.70;6.00;;;;;;;9.65;99.36;98641.63;5082775;28;20179;-71
2021/11/07 03:09:52;;;;;;;41.25;8.15;;;;;;;9.66;99.47;98638.13;5083272;28;20025;-70
2021/11/07 03:12:18;;;;;;;42.10;6.00;;;;;;;9.71;99.21;98643.19;5082937;28;20027;-71
2021/11/07 03:14:47;;;;;;;53.05;8.77;;;;;;;9.73;99.20;98635.34;5082652;28;20399;-71
2021/11/07 03:17:17;;;;;;;42.28;5.95;;;;;;;9.72;99.04;98631.91;5085616;28;20095;-71
2021/11/07 03:19:43;;;;;;;41.22;7.43;;;;;;;9.65;99.15;98628.66;5086819;28;20087;-71
2021/11/07 03:22:11;;;;;;;32.78;5.13;;;;;;;9.70;98.86;98627.66;5086955;28;20020;-71
2021/11/07 03:24:38;;;;;;;41.50;6.55;;;;;;;9.67;98.91;98619.13;5086932;28;20024;-71
2021/11/07 03:27:12;;;;;;;34.75;4.80;;;;;;;9.69;98.72;98620.78;5086649;28;20040;-71
2021/11/07 03:29:45;;;;;;;30.27;5.32;;;;;;;9.66;98.93;98622.56;5086489;28;20096;-71
2021/11/07 03:32:22;;;;;;;;;;;;;;;9.69;98.71;98625.97;5086905;28;20395;-71
2021/11/07 03:34:54;;;;;;;33.35;6.70;;;;;;;9.64;98.67;98618.34;5086497;28;19916;-71
2021/11/07 03:37:24;;;;;;;43.75;6.85;;;;;;;9.67;98.66;98615.66;5086606;28;20055;-69
2021/11/07 03:40:01;;;;;;;57.38;7.20;;;;;;;9.63;98.88;98609.72;5086308;28;20043;-69
2021/11/07 03:42:27;;;;;;;42.25;7.90;;;;;;;9.65;99.06;98610.53;5086177;28;20098;-69
2021/11/07 03:44:54;;;;;;;40.53;5.32;;;;;;;9.65;99.06;98615.72;5086169;28;20024;-69
2021/11/07 03:47:20;;;;;;;34.28;6.15;;;;;;;9.60;98.98;98602.06;5086067;28;20020;-70
2021/11/07 03:49:45;;;;;;;45.67;7.07;;;;;;;9.64;98.95;98616.63;5086412;28;20024;-69
2021/11/07 03:52:11;;;;;;;35.38;7.90;;;;;;;9.65;98.76;98613.13;5086282;28;20381;-69
2021/11/07 03:54:39;;;;;;;55.05;7.55;;;;;;;9.65;98.85;98607.09;5086157;28;20056;-69
2021/11/07 03:57:04;;;;;;;53.03;8.32;;;;;;;9.66;98.46;98612.22;5086132;28;20016;-70
2021/11/07 03:59:30;;;;;;;55.42;8.10;;;;;;;9.66;98.41;98612.22;5085824;28;20496;-69
2021/11/07 04:01:56;;;;;;;43.08;7.45;;;;;;;9.54;98.38;98592.75;5085608;28;20025;-69
2021/11/07 04:04:22;;;;;;;57.40;6.65;;;;;;;9.61;98.29;98608.97;5101346;28;20123;-70
2021/11/07 04:06:47;;;;;;;41.58;5.72;;;;;;;9.57;98.48;98607.34;5085635;28;20052;-70
2021/11/07 04:09:13;;;;;;;46.80;7.45;;;;;;;9.42;98.24;98596.59;5085790;28;20426;-70
2021/11/07 04:11:40;;;;;;;67.72;7.40;;;;;;;9.56;98.34;98613.44;5085866;28;20038;-70
2021/11/07 04:14:07;;;;;;;48.92;7.82;;;;;;;9.54;98.39;98617.81;5083960;28;20024;-69
2021/11/07 04:16:33;;;;;;;54.35;7.25;;;;;;;9.55;98.19;98619.53;5085904;28;20054;-70
2021/11/07 04:18:59;;;;;;;46.17;5.13;;;;;;;9.59;98.31;98602.97;5085631;28;20055;-71
2021/11/07 04:21:24;;;;;;;61.20;7.47;;;;;;;9.55;97.96;98596.22;5085634;28;20017;-70
2021/11/07 04:23:50;;;;;;;52.75;8.20;;;;;;;9.60;98.19;98607.25;5085370;28;20088;-71
2021/11/07 04:26:16;;;;;;;50.85;8.85;;;;;;;9.56;97.86;98600.47;5085433;28;20020;-71
2021/11/07 04:28:42;;;;;;;27.45;3.88;;;;;;;9.51;97.80;98600.63;5085004;28;20034;-69
2021/11/07 04:31:07;;;;;;;56.25;7.38;;;;;;;9.45;97.50;98595.66;5085117;28;20112;-72
2021/11/07 04:33:33;;;;;;;57.10;10.07;;;;;;;9.45;97.40;98603.44;5085161;28;20108;-71
2021/11/07 04:35:59;;;;;;;52.40;7.35;;;;;;;9.33;96.82;98583.94;5085379;28;20043;-71
2021/11/07 04:38:24;;;;;;;54.97;6.53;;;;;;;9.32;97.25;98597.81;5083746;28;20025;-71
2021/11/07 04:40:50;;;;;;;45.45;6.30;;;;;;;9.23;97.04;98585.16;5085155;28;20031;-70
2021/11/07 04:43:17;;;;;;;44.03;7.28;;;;;;;9.30;97.01;98600.44;5085150;28;20020;-70
2021/11/07 04:45:42;;;;;;;50.67;5.75;;;;;;;9.36;97.12;98590.78;5084854;28;20032;-69
2021/11/07 04:48:08;;;;;;;62.15;6.93;;;;;;;9.32;97.10;98592.63;5084905;28;20055;-69
2021/11/07 04:50:37;;;;;;;39.03;8.45;;;;;;;9.23;96.69;98588.59;5085026;28;20024;-70
2021/11/07 04:53:08;;;;;;;37.55;5.72;;;;;;;9.28;96.49;98583.28;5084881;28;20024;-69
2021/11/07 04:55:35;;;;;;;48.75;6.22;;;;;;;9.32;96.71;98590.03;5084855;28;20020;-69
2021/11/07 04:58:02;;;;;;;53.95;6.65;;;;;;;9.20;96.95;98575.72;5084729;28;20040;-69
2021/11/07 05:00:28;;;;;;;38.60;6.68;;;;;;;9.34;96.74;98595.16;5084565;28;20032;-70
2021/11/07 05:02:54;;;;;;;48.78;7.88;;;;;;;9.37;96.46;98595.91;5084836;28;20321;-69
2021/11/07 05:05:20;;;;;;;57.33;8.30;;;;;;;9.36;96.36;98601.16;5084416;28;20059;-68
2021/11/07 05:07:46;;;;;;;67.88;10.20;;;;;;;9.35;96.11;98602.03;5084671;28;20103;-67
2021/11/07 05:10:12;;;;;;;46.90;6.50;;;;;;;9.30;96.32;98597.00;5084383;28;20081;-66
2021/11/07 05:12:38;;;;;;;54.58;6.90;;;;;;;9.30;95.93;98604.75;5084257;28;20024;-66
2021/11/07 05:15:06;;;;;;;38.65;6.18;;;;;;;9.18;95.94;98580.97;5084291;28;20048;-66
2021/11/07 05:17:31;;;;;;;59.08;8.95;;;;;;;9.32;95.79;98602.13;5084306;28;20040;-66
2021/11/07 05:19:56;;;;;;;40.33;5.88;;;;;;;9.35;95.64;98605.47;5084615;28;20024;-66
2021/11/07 05:22:22;;;;;;;39.05;5.85;;;;;;;9.33;95.64;98604.66;5084340;28;20059;-65
2021/11/07 05:24:47;;;;;;;47.45;8.43;;;;;;;9.35;95.49;98600.28;5084171;28;20028;-65
2021/11/07 05:27:15;;;;;;;40.25;4.95;;;;;;;9.33;95.01;98596.91;5083935;28;20020;-65
2021/11/07 05:29:40;;;;;;;45.08;5.30;;;;;;;9.29;94.61;98603.09;5083666;28;20031;-66
2021/11/07 05:32:06;;;;;;;42.55;6.50;;;;;;;9.30;94.27;98597.84;5084347;28;20032;-66
2021/11/07 05:34:32;;;;;;;46.15;5.97;;;;;;;9.33;94.12;98603.84;5083714;28;20536;-67
2021/11/07 05:36:58;;;;;;;30.55;5.05;;;;;;;9.32;94.44;98602.97;5084029;28;20027;-66
2021/11/07 05:39:24;;;;;;;42.80;5.80;;;;;;;9.29;94.17;98598.75;5083294;28;20052;-68
2021/11/07 05:41:50;;;;;;;46.95;5.78;;;;;;;9.16;94.16;98576.72;5084111;28;20025;-70
2021/11/07 05:44:15;;;;;;;49.85;6.32;;;;;;;9.32;94.07;98602.13;5083709;28;20034;-69
2021/11/07 05:46:43;;;;;;;40.03;5.72;;;;;;;9.27;94.26;98592.78;5084328;28;20028;-69
2021/11/07 05:49:08;;;;;;;42.30;6.07;;;;;;;9.29;94.03;98592.72;5083879;28;20020;-69
2021/11/07 05:51:36;;;;;;;34.25;5.22;;;;;;;9.10;93.92;98567.44;5082593;28;20016;-69
2021/11/07 05:54:01;;;;;;;35.72;5.70;;;;;;;9.16;93.48;98598.31;5083693;28;20031;-69
2021/11/07 05:56:27;;;;;;;22.75;4.35;;;;;;;9.07;93.18;98602.91;5083927;28;20017;-68
2021/11/07 05:58:52;;;;;;;24.45;5.28;;;;;;;9.04;92.49;98594.34;5083514;28;20439;-69
2021/11/07 06:01:17;;;;;;;22.85;4.38;;;;;;;9.04;92.40;98607.28;5083738;28;20037;-69
2021/11/07 06:03:43;;;;;;;24.23;3.35;;;;;;;8.96;92.48;98585.13;5082206;28;20422;-69
2021/11/07 06:06:08;;;;;;;26.60;4.85;;;;;;;9.06;92.24;98602.06;5083810;28;20059;-68
2021/11/07 06:08:33;;;;;;;25.00;3.75;;;;;;;9.04;92.54;98599.53;5083687;28;20024;-68
2021/11/07 06:11:00;;;;;;;35.63;5.32;;;;;;;8.90;92.20;98581.84;5083427;28;20025;-68
2021/11/07 06:13:26;;;;;;;21.50;3.83;;;;;;;8.99;92.47;98595.41;5083233;28;20052;-68
2021/11/07 06:15:51;;;;;;;31.52;4.93;;;;;;;9.04;92.51;98586.56;5083323;28;20036;-68
2021/11/07 06:18:17;;;;;;;25.65;4.05;;;;;;;9.06;92.09;98604.66;5083625;28;20013;-65
2021/11/07 06:20:42;;;;;;;22.05;2.72;;;;;;;8.95;92.08;98604.13;5083530;28;20479;-70
2021/11/07 06:23:10;;;;;;;13.30;2.75;;;;;;;8.87;91.71;98599.19;5083410;28;20114;-70
2021/11/07 06:25:36;;;;;;;15.55;1.85;;;;;;;8.77;92.14;98593.47;5083237;28;20016;-71
2021/11/07 06:28:02;;;;;;;18.85;3.03;;;;;;;8.66;91.29;98592.03;5083272;28;20024;-71
2021/11/07 06:30:28;;;;;;;13.98;2.67;;;;;;;8.59;91.75;98597.44;5083184;28;20016;-71
2021/11/07 06:32:54;;;;;;;16.90;4.00;;;;;;;8.59;91.98;98597.44;5083304;28;20080;-70
2021/11/07 06:35:19;;;;;;;28.23;3.70;;;;;;;8.48;92.13;98593.38;5083056;28;20047;-69
2021/11/07 06:37:45;;;;;;;25.95;3.78;;;;;;;8.34;92.58;98575.69;5083240;28;20027;-68
2021/11/07 06:40:11;;;;;;;25.08;3.88;;;;;;;8.34;92.81;98578.28;5083200;28;20021;-69
2021/11/07 06:42:38;;;;;;;26.85;3.92;;;;;;;8.49;93.23;98599.41;5083290;28;20028;-69
2021/11/07 06:45:04;;;;;;;17.08;4.32;;;;;;;8.53;93.41;98604.44;5082748;28;20020;-70
2021/11/07 06:47:29;;;;;;;28.75;4.13;;;;;;;8.42;93.52;98585.81;5082879;28;20123;-70
2021/11/07 06:49:55;;;;;;;36.13;4.65;;;;;;;8.55;93.39;98607.88;5083718;28;20465;-70
2021/11/07 06:52:20;;;;;;;37.63;4.32;;;;;;;8.59;93.40;98606.06;5087168;28;20028;-70
2021/11/07 06:54:47;;;;;;;26.45;4.50;;;;;;;8.63;93.44;98611.97;5087170;28;20028;-72
2021/11/07 06:57:13;;;;;;;38.78;5.57;;;;;;;8.59;93.14;98602.63;5087275;28;20016;-71
2021/11/07 06:59:39;;;;;;;20.67;3.40;;;;;;;8.66;93.01;98607.56;5087054;28;20020;-70
2021/11/07 07:02:05;;;;;;;23.17;3.80;;;;;;;8.66;93.19;98606.72;5086827;28;20028;-70
2021/11/07 07:04:31;;;;;;;25.50;3.58;;;;;;;8.56;93.01;98606.16;5086988;28;20021;-69
2021/11/07 07:06:56;;;;;;;23.30;3.40;;;;;;;8.45;92.31;98590.88;5086953;28;20416;-70
2021/11/07 07:09:30;;;;;;;41.35;5.72;;;;;;;8.63;92.10;98618.00;5103406;28;20471;-69
2021/11/07 07:12:07;;;;;;;31.05;3.58;;;;;;;8.54;92.08;98595.84;5086054;28;20016;-69
2021/11/07 07:14:47;;;;;;;38.10;5.15;;;;;;;8.73;91.99;98615.13;5086683;28;20036;-69
2021/11/07 07:19:53;;;;;;;23.48;3.83;;;;;;;8.82;91.82;98611.44;5086683;28;20024;-69
2021/11/07 07:33:01;;;;;;;19.75;3.65;;;;;;;9.18;91.37;98606.03;5086589;28;20040;-69
2021/11/07 07:35:27;;;;;;;22.15;3.38;;;;;;;9.20;90.82;98608.56;5085981;28;20064;-68
2021/11/07 07:37:55;;;;;;;30.98;4.68;;;;;;;9.25;91.21;98606.69;5086060;28;20048;-68
2021/11/07 07:40:21;;;;;;;25.23;3.67;;;;;;;9.25;90.45;98606.69;5101682;28;20028;-68
2021/11/07 07:42:47;;;;;;;21.05;3.47;;;;;;;9.17;89.57;98600.00;5086337;28;20028;-68
2021/11/07 07:45:14;;;;;;;26.08;4.03;;;;;;;9.32;89.24;98599.53;5085934;28;20052;-68
2021/11/07 07:47:42;;;;;;;25.45;4.15;;;;;;;9.34;88.96;98611.56;5085943;28;20032;-68
2021/11/07 07:50:07;;;;;;;27.17;4.10;;;;;;;9.18;88.85;98595.66;5085926;28;20024;-69
2021/11/07 07:52:33;;;;;;;30.35;4.13;;;;;;;9.16;89.37;98595.72;5085884;28;20512;-69
2021/11/07 07:54:58;;;;;;;27.35;4.70;;;;;;;9.35;89.71;98628.78;5085684;28;20025;-68
2021/11/07 07:57:24;;;;;;;36.50;4.93;;;;;;;9.30;89.00;98625.47;5086078;28;20350;-69
2021/11/07 07:59:50;;;;;;;16.13;4.38;;;;;;;9.28;89.33;98627.28;5085686;28;20487;-69
2021/11/07 08:02:16;;;;;;;22.52;4.05;;;;;;;9.26;88.42;98622.16;5084845;28;20028;-69
2021/11/07 08:04:41;;;;;;;20.40;3.78;;;;;;;9.23;88.74;98619.69;5085661;28;20021;-69
2021/11/07 08:07:07;;;;;;;22.88;4.32;;;;;;;9.30;88.56;98621.16;5085735;28;20029;-69
2021/11/07 08:09:32;;;;;;;27.33;4.40;;;;;;;9.26;89.34;98603.19;5085685;28;20035;-69
2021/11/07 08:11:58;;;;;;;25.55;3.80;;;;;;;9.43;89.53;98625.94;5085646;28;20425;-68
2021/11/07 08:14:23;;;;;;;28.48;3.83;;;;;;;9.42;88.92;98630.25;5085339;28;20025;-70
2021/11/07 08:16:48;;;;;;;20.70;2.95;;;;;;;9.50;88.82;98626.59;5085684;28;20028;-69
2021/11/07 08:19:15;;;;;;;28.05;3.78;;;;;;;9.41;88.51;98623.41;5085614;28;20024;-69
2021/11/07 08:21:42;;;;;;;20.10;4.03;;;;;;;9.53;88.60;98636.84;5084393;28;20028;-69
2021/11/07 08:24:09;;;;;;;28.52;4.20;;;;;;;9.58;88.59;98634.97;5085474;28;20050;-68
2021/11/07 08:26:39;;;;;;;24.67;3.85;;;;;;;9.64;88.35;98632.16;5085376;28;20031;-68
2021/11/07 08:29:06;;;;;;;30.38;4.30;;;;;;;9.68;89.02;98627.72;5083891;28;20028;-69
2021/11/07 08:31:32;;;;;;;19.92;3.42;;;;;;;9.74;88.45;98630.13;5085280;28;20021;-69
2021/11/07 08:33:58;;;;;;;25.52;5.72;;;;;;;9.81;87.90;98635.09;5085039;28;20108;-69
2021/11/07 08:36:36;;;;;;;34.88;4.70;;;;;;;9.77;86.99;98642.13;5084009;28;20096;-67
2021/11/07 08:39:07;;;;;;;33.22;4.72;;;;;;;9.81;87.34;98643.69;5085421;28;20504;-68
2021/11/07 08:41:33;;;;;;;17.17;3.20;;;;;;;9.78;86.99;98634.28;5085194;28;20055;-67
2021/11/07 09:00:25;;;;;;;26.75;3.60;;;;;;;9.85;84.47;98632.34;5084576;28;20101;-67
2021/11/07 09:08:27;;;;;;;21.23;4.30;;;;;;;9.49;83.50;98632.69;5075544;28;20040;-71
2021/11/07 09:10:53;;;;;;;33.38;5.20;;;;;;;9.35;84.12;98636.56;5084511;28;20288;-74
2021/11/07 09:13:19;;;;;;;27.48;6.18;;;;;;;9.25;85.29;98650.69;5083935;28;20095;-69
2021/11/07 09:15:48;;;;;;;36.38;6.25;;;;;;;9.12;86.20;98642.47;5083736;28;20478;-69
2021/11/07 09:18:14;;;;;;;34.30;5.60;;;;;;;9.05;87.12;98644.38;5084471;28;20016;-70
2021/11/07 09:20:51;;;;;;;30.52;5.47;;;;;;;9.07;87.66;98644.34;5084441;28;20066;-70
2021/11/07 09:23:23;;;;;;;28.52;4.25;;;;;;;9.03;88.41;98647.03;5084289;28;20035;-71
2021/11/07 09:26:02;;;;;;;;;;;;;;;9.14;88.10;98643.25;5084800;28;20016;-71
2021/11/07 09:28:39;;;;;;;20.80;4.00;;;;;;;9.05;89.25;98616.75;5084158;28;19919;-75
2021/11/07 09:36:21;;;;;;;27.60;4.57;;;;;;;9.26;88.71;98644.63;5084091;28;20082;-72
2021/11/07 09:38:50;;;;;;;18.60;3.13;;;;;;;9.12;88.81;98652.81;5083568;28;20032;-70
2021/11/07 09:44:10;;;;;;;22.55;3.40;;;;;;;8.38;87.67;98646.28;5084566;28;20025;-70
2021/11/07 09:46:49;;;;;;;28.20;3.53;;;;;;;8.11;89.29;98639.25;5082578;28;20502;-73
2021/11/07 09:49:27;;;;;;;21.70;3.70;;;;;;;8.13;90.05;98645.19;5084101;28;20049;-75
2021/11/07 09:52:07;;;;;;;26.95;4.82;;;;;;;8.12;90.88;98634.91;5082829;28;20032;-75
2021/11/07 09:54:34;;;;;;;22.65;3.22;;;;;;;7.97;90.55;98636.19;5083767;28;20381;-75
2021/11/07 09:57:00;;;;;;;30.98;4.38;;;;;;;7.90;91.30;98640.66;5099389;28;20016;-73
2021/11/07 09:59:28;;;;;;;40.38;5.30;;;;;;;8.03;91.73;98646.34;5083334;28;20059;-74
2021/11/07 10:01:58;;;;;;;32.47;4.35;;;;;;;8.00;92.18;98649.00;5083653;28;20067;-74
2021/11/07 10:04:26;;;;;;;46.40;5.47;;;;;;;8.11;92.50;98652.16;5083611;28;20086;-75
2021/11/07 10:06:56;;;;;;;22.15;3.85;;;;;;;8.17;92.95;98652.00;5083420;28;20051;-74
2021/11/07 10:09:37;;;;;;;24.60;3.80;;;;;;;7.99;92.66;98634.38;5082484;28;20096;-75
2021/11/07 10:12:12;;;;;;;14.00;2.58;;;;;;;8.07;93.00;98650.53;5083648;28;20367;-74
2021/11/07 10:14:49;;;;;;;17.48;3.03;;;;;;;8.12;92.80;98668.50;5097867;28;20088;-75
2021/11/07 10:17:33;;;;;;;16.05;3.97;;;;;;;8.12;92.79;98660.75;5081316;28;20487;-76
2021/11/07 10:20:38;;;;;;;28.90;3.65;;;;;;;8.08;93.03;98665.16;5081497;28;20094;-74
2021/11/07 10:23:18;;;;;;;19.23;3.65;;;;;;;8.10;93.08;98662.56;5079514;28;20104;-75
2021/11/07 10:25:54;;;;;;;21.42;3.53;;;;;;;8.01;93.29;98656.72;5098526;28;20035;-74
2021/11/07 10:28:22;;;;;;;24.70;3.13;;;;;;;8.09;93.72;98671.16;5081948;28;20046;-74
2021/11/07 10:31:33;;;;;;;27.90;3.88;;;;;;;8.13;93.91;98673.63;5082960;28;20476;-74
2021/11/07 10:53:15;;;;;;;24.10;3.50;;;;;;;8.45;93.91;98683.16;5040225;28;20413;-64
2021/11/07 10:55:52;;;;;;;27.55;3.67;;;;;;;8.49;94.07;98682.19;5040150;28;20045;-64
2021/11/07 10:58:29;;;;;;;13.02;4.03;;;;;;;8.61;94.00;98681.88;5040234;28;20029;-65
2021/11/07 11:00:56;;;;;;;30.00;3.63;;;;;;;8.66;94.11;98685.19;5040290;28;20049;-65
2021/11/07 11:03:24;;;;;;;24.67;4.03;;;;;;;8.73;93.40;98685.84;5040283;28;20374;-66
2021/11/07 11:05:53;;;;;;;24.45;3.50;;;;;;;8.86;93.66;98683.75;5039967;28;20045;-66
2021/11/07 11:08:33;;;;;;;22.80;3.17;;;;;;;8.97;93.18;98680.00;5040332;28;20061;-67
2021/11/07 11:24:42;;;;;;;27.13;4.30;;;;;;;9.17;92.74;98693.19;5039914;28;20076;-68
2021/11/07 11:30:10;;;;;;;15.55;2.78;;;;;;;9.25;92.58;98697.31;5082690;28;20020;-70
2021/11/07 11:37:50;;;;;;;17.92;3.05;;;;;;;9.04;92.20;98695.28;5084231;28;20021;-70
2021/11/07 11:40:26;;;;;;;14.82;2.70;;;;;;;8.87;91.59;98688.03;5101718;28;20393;-71
2021/11/07 11:42:57;;;;;;;28.98;3.10;;;;;;;8.95;91.90;98684.38;5086017;28;20080;-69
2021/11/07 11:45:27;;;;;;;13.15;2.40;;;;;;;9.09;91.98;98697.75;5085619;28;20055;-67
2021/11/07 11:48:22;;;;;;;21.73;3.28;;;;;;;9.20;92.31;98702.59;5085598;28;20031;-67
2021/11/07 11:51:08;;;;;;;19.30;2.47;;;;;;;9.21;91.90;98693.09;5085583;28;20066;-66
2021/11/07 11:54:27;;;;;;;21.25;2.72;;;;;;;9.38;91.46;98698.59;5085935;28;20040;-65
2021/11/07 11:56:53;;;;;;;17.35;3.85;;;;;;;9.67;91.89;98707.22;5084489;28;20044;-62
2021/11/07 11:59:33;;;;;;;13.38;2.65;;;;;;;9.85;90.87;98706.66;5085113;28;20016;-62
2021/11/07 12:02:23;;;;;;;15.80;2.95;;;;;;;9.94;90.54;98708.09;5085277;28;20043;-63
2021/11/07 12:05:32;;;;;;;16.55;3.03;;;;;;;9.99;90.57;98711.38;5084730;28;20545;-61
2021/11/07 12:08:25;;;;;;;16.05;3.05;;;;;;;10.01;91.27;98714.78;5085531;28;20044;-62
2021/11/07 12:11:13;;;;;;;8.48;1.92;;;;;;;10.08;91.20;98705.88;5085543;28;20100;-62
2021/11/07 12:13:49;;;;;;;13.20;2.95;;;;;;;10.21;90.99;98715.84;5085464;28;20035;-62
2021/11/07 12:16:23;;;;;;;12.13;2.42;;;;;;;10.29;91.35;98712.09;5084971;28;20024;-61
2021/11/07 12:19:05;;;;;;;10.88;2.35;;;;;;;10.41;90.63;98717.75;5085212;28;20024;-62
2021/11/07 12:21:49;;;;;;;13.52;2.50;;;;;;;10.48;90.22;98710.63;5085175;28;20024;-61
2021/11/07 12:24:26;;;;;;;15.05;2.58;;;;;;;10.43;88.62;98720.28;5084806;28;20407;-63
2021/11/07 12:26:52;;;;;;;16.42;2.15;;;;;;;10.40;89.16;98727.28;5084886;28;20035;-63
2021/11/07 12:29:42;;;;;;;12.48;1.92;;;;;;;10.39;89.51;98714.34;5084849;28;20033;-63
2021/11/07 12:32:10;;;;;;;12.63;2.03;;;;;;;10.34;89.89;98726.63;5084982;28;20021;-62
2021/11/07 12:34:58;;;;;;;14.88;1.90;;;;;;;10.29;89.56;98727.66;5084756;28;20075;-62
2021/11/07 12:40:39;;;;;;;10.95;2.10;;;;;;;10.31;89.93;98732.78;5085121;28;20486;-62
2021/11/07 12:43:11;;;;;;;11.38;2.50;;;;;;;10.27;90.20;98726.84;5084835;28;20029;-62
2021/11/07 12:45:44;;;;;;;8.85;1.80;;;;;;;10.23;90.26;98727.00;5084277;28;20453;-61
2021/11/07 12:48:13;;;;;;;7.78;1.95;;;;;;;10.26;90.82;98739.88;5099964;28;20385;-61
2021/11/07 12:50:58;;;;;;;6.13;1.27;;;;;;;10.19;89.93;98741.84;5084633;28;20051;-61
2021/11/07 12:53:26;;;;;;;7.10;1.30;;;;;;;10.13;89.81;98750.66;5084653;28;20466;-61
2021/11/07 12:55:52;;;;;;;13.85;2.17;;;;;;;10.12;89.80;98748.13;5084681;28;20024;-61
2021/11/07 12:58:17;;;;;;;8.25;1.40;;;;;;;10.07;90.22;98750.88;5084683;28;20020;-61
2021/11/07 13:00:44;;;;;;;8.27;1.60;;;;;;;10.06;90.48;98756.97;5084219;28;20036;-61
2021/11/07 13:03:12;;;;;;;9.65;1.45;;;;;;;9.99;90.75;98764.09;5084185;28;20081;-62
2021/11/07 13:05:40;;;;;;;6.53;1.77;;;;;;;10.12;90.83;98767.13;5084501;28;20020;-61
2021/11/07 13:08:08;;;;;;;5.85;1.40;;;;;;;10.14;90.83;98778.28;5084507;28;20031;-62
2021/11/07 13:13:09;;;;;;;5.47;1.20;;;;;;;10.11;91.03;98783.56;5084567;28;20496;-62
2021/11/07 13:16:04;;;;;;;4.38;1.20;;;;;;;10.09;91.23;98792.31;5084101;28;20087;-61
2021/11/07 13:27:01;;;;;;;3.53;1.35;;;;;;;10.09;91.43;98806.13;5084244;28;20035;-61
2021/11/07 13:34:33;;;;;;;9.13;1.85;;;;;;;10.11;91.69;98804.31;5083965;28;20048;-61
2021/11/07 13:37:02;;;;;;;4.95;1.70;;;;;;;10.14;91.65;98809.38;5083695;28;20038;-61
2021/11/07 13:39:34;;;;;;;7.47;1.40;;;;;;;10.13;91.78;98815.50;5083699;28;20029;-61
2021/11/07 13:42:14;;;;;;;11.73;2.65;;;;;;;10.11;91.20;98816.44;5082299;28;20029;-61
2021/11/07 13:44:52;;;;;;;3.97;1.23;;;;;;;10.02;91.38;98814.97;5083073;28;20024;-62
2021/11/07 13:47:18;;;;;;;6.85;1.60;;;;;;;9.98;91.14;98821.16;5083270;28;20092;-62
2021/11/07 13:49:53;;;;;;;8.55;1.20;;;;;;;9.95;91.31;98821.28;5083323;28;20024;-62
2021/11/07 13:52:19;;;;;;;3.70;1.15;;;;;;;9.91;91.10;98821.38;5083540;28;20043;-61
2021/11/07 13:54:47;;;;;;;6.93;1.40;;;;;;;9.83;91.14;98836.28;5082947;28;20032;-62
2021/11/07 13:57:13;;;;;;;7.60;1.25;;;;;;;9.77;90.79;98831.31;5083254;28;20020;-60
2021/11/07 13:59:44;;;;;;;5.20;1.17;;;;;;;9.60;90.83;98819.69;5082845;28;20488;-61
2021/11/07 14:02:15;;;;;;;6.97;1.48;;;;;;;9.67;91.12;98836.78;5083352;28;20043;-61
2021/11/07 14:04:53;;;;;;;6.65;1.50;;;;;;;9.60;91.06;98840.41;5083215;28;20028;-61